sensor_id;sensor_type;location;lat;lon;timestamp;temperature;humidity
10873;DHT22;34586;53.616;10.032;2023-02-28T00:00:31;4.30;99.90
10873;DHT22;34586;53.616;10.032;2023-02-28T00:02:56;4.30;99.90
10873;DHT22;34586;53.616;10.032;2023-02-28T00:05:23;4.20;1.00
10873;DHT22;34586;53.616;10.032;2023-02-28T00:07:49;4.20;1.00
10873;DHT22;34586;53.616;10.032;2023-02-28T00:10:18;4.20;1.00
10873;DHT22;34586;53.616;10.032;2023-02-28T00:12:55;4.10;1.00
10873;DHT22;34586;53.616;10.032;2023-02-28T00:15:23;4.00;99.90
10873;DHT22;34586;53.616;10.032;2023-02-28T00:17:49;3.90;99.90
10873;DHT22;34586;53.616;10.032;2023-02-28T00:20:15;3.80;41.50
10873;DHT22;34586;53.616;10.032;2023-02-28T00:22:49;3.70;1.00
10873;DHT22;34586;53.616;10.032;2023-02-28T00:25:18;3.50;99.90
10873;DHT22;34586;53.616;10.032;2023-02-28T00:27:44;3.40;1.00
10873;DHT22;34586;53.616;10.032;2023-02-28T00:30:13;3.40;1.00
10873;DHT22;34586;53.616;10.032;2023-02-28T00:32:39;3.40;1.00
10873;DHT22;34586;53.616;10.032;2023-02-28T00:35:06;3.40;99.90
10873;DHT22;34586;53.616;10.032;2023-02-28T00:37:32;3.30;96.80
10873;DHT22;34586;53.616;10.032;2023-02-28T00:39:57;3.30;99.90
10873;DHT22;34586;53.616;10.032;2023-02-28T00:42:24;3.30;1.00
10873;DHT22;34586;53.616;10.032;2023-02-28T00:44:49;3.20;1.00
10873;DHT22;34586;53.616;10.032;2023-02-28T00:47:15;3.20;1.00
10873;DHT22;34586;53.616;10.032;2023-02-28T00:49:41;3.10;99.90
10873;DHT22;34586;53.616;10.032;2023-02-28T00:52:06;3.10;1.00
10873;DHT22;34586;53.616;10.032;2023-02-28T00:54:32;3.00;1.00
10873;DHT22;34586;53.616;10.032;2023-02-28T00:56:58;3.00;99.90
10873;DHT22;34586;53.616;10.032;2023-02-28T00:59:24;3.00;99.90
10873;DHT22;34586;53.616;10.032;2023-02-28T01:01:49;3.10;99.90
10873;DHT22;34586;53.616;10.032;2023-02-28T01:04:15;3.10;1.00
10873;DHT22;34586;53.616;10.032;2023-02-28T01:06:41;3.10;99.90
10873;DHT22;34586;53.616;10.032;2023-02-28T01:09:07;3.10;1.00
10873;DHT22;34586;53.616;10.032;2023-02-28T01:11:34;3.10;1.00
10873;DHT22;34586;53.616;10.032;2023-02-28T01:14:00;3.20;1.00
10873;DHT22;34586;53.616;10.032;2023-02-28T01:16:26;3.20;99.90
10873;DHT22;34586;53.616;10.032;2023-02-28T01:18:52;3.20;1.00
10873;DHT22;34586;53.616;10.032;2023-02-28T01:21:20;3.20;1.00
10873;DHT22;34586;53.616;10.032;2023-02-28T01:23:46;3.10;99.90
10873;DHT22;34586;53.616;10.032;2023-02-28T01:26:18;3.10;1.00
10873;DHT22;34586;53.616;10.032;2023-02-28T01:28:45;3.10;99.90
10873;DHT22;34586;53.616;10.032;2023-02-28T01:31:11;3.10;1.00
10873;DHT22;34586;53.616;10.032;2023-02-28T01:33:37;3.00;1.00
10873;DHT22;34586;53.616;10.032;2023-02-28T01:36:06;3.00;1.00
10873;DHT22;34586;53.616;10.032;2023-02-28T01:38:32;3.00;99.90
10873;DHT22;34586;53.616;10.032;2023-02-28T01:40:58;3.00;99.90
10873;DHT22;34586;53.616;10.032;2023-02-28T01:43:24;2.90;1.00
10873;DHT22;34586;53.616;10.032;2023-02-28T01:45:52;2.90;99.90
10873;DHT22;34586;53.616;10.032;2023-02-28T01:48:18;2.80;1.00
10873;DHT22;34586;53.616;10.032;2023-02-28T01:50:45;2.90;99.90
10873;DHT22;34586;53.616;10.032;2023-02-28T01:53:16;2.90;1.00
10873;DHT22;34586;53.616;10.032;2023-02-28T01:55:46;2.70;99.90
10873;DHT22;34586;53.616;10.032;2023-02-28T01:58:13;2.80;99.90
10873;DHT22;34586;53.616;10.032;2023-02-28T02:00:39;2.80;99.90
10873;DHT22;34586;53.616;10.032;2023-02-28T02:03:12;2.60;99.90
10873;DHT22;34586;53.616;10.032;2023-02-28T02:05:40;2.80;99.90
10873;DHT22;34586;53.616;10.032;2023-02-28T02:08:15;2.90;99.90
10873;DHT22;34586;53.616;10.032;2023-02-28T02:10:46;3.00;99.90
10873;DHT22;34586;53.616;10.032;2023-02-28T02:13:35;2.90;6.00
10873;DHT22;34586;53.616;10.032;2023-02-28T02:18:39;3.00;94.80
10873;DHT22;34586;53.616;10.032;2023-02-28T02:32:13;2.90;92.60
10873;DHT22;34586;53.616;10.032;2023-02-28T02:40:30;2.80;1.00
10873;DHT22;34586;53.616;10.032;2023-02-28T02:45:43;2.70;1.00
10873;DHT22;34586;53.616;10.032;2023-02-28T02:48:13;2.70;99.90
10873;DHT22;34586;53.616;10.032;2023-02-28T02:50:49;2.60;99.90
10873;DHT22;34586;53.616;10.032;2023-02-28T02:53:17;2.60;99.90
10873;DHT22;34586;53.616;10.032;2023-02-28T02:55:47;2.50;1.00
10873;DHT22;34586;53.616;10.032;2023-02-28T02:58:19;2.40;99.90
10873;DHT22;34586;53.616;10.032;2023-02-28T03:00:48;2.40;99.90
10873;DHT22;34586;53.616;10.032;2023-02-28T03:03:17;2.30;1.00
10873;DHT22;34586;53.616;10.032;2023-02-28T03:05:49;2.30;99.90
10873;DHT22;34586;53.616;10.032;2023-02-28T03:08:15;2.20;99.90
10873;DHT22;34586;53.616;10.032;2023-02-28T03:10:43;2.20;99.90
10873;DHT22;34586;53.616;10.032;2023-02-28T03:16:31;2.00;1.00
10873;DHT22;34586;53.616;10.032;2023-02-28T03:19:34;2.00;1.00
10873;DHT22;34586;53.616;10.032;2023-02-28T03:25:06;1.90;1.00
10873;DHT22;34586;53.616;10.032;2023-02-28T03:27:53;1.90;1.00
10873;DHT22;34586;53.616;10.032;2023-02-28T03:30:36;1.90;1.00
10873;DHT22;34586;53.616;10.032;2023-02-28T03:33:32;1.80;1.00
10873;DHT22;34586;53.616;10.032;2023-02-28T03:36:04;1.80;1.00
10873;DHT22;34586;53.616;10.032;2023-02-28T03:38:50;1.80;1.00
10873;DHT22;34586;53.616;10.032;2023-02-28T03:41:23;1.70;99.90
10873;DHT22;34586;53.616;10.032;2023-02-28T03:44:09;1.60;1.00
10873;DHT22;34586;53.616;10.032;2023-02-28T03:46:44;1.40;1.00
10873;DHT22;34586;53.616;10.032;2023-02-28T03:49:16;1.30;1.00
10873;DHT22;34586;53.616;10.032;2023-02-28T03:51:43;1.20;1.00
10873;DHT22;34586;53.616;10.032;2023-02-28T03:54:14;1.20;1.00
10873;DHT22;34586;53.616;10.032;2023-02-28T03:59:18;1.00;1.00
10873;DHT22;34586;53.616;10.032;2023-02-28T04:01:47;1.00;1.00
10873;DHT22;34586;53.616;10.032;2023-02-28T04:04:14;0.90;1.00
10873;DHT22;34586;53.616;10.032;2023-02-28T04:06:41;0.90;1.00
10873;DHT22;34586;53.616;10.032;2023-02-28T04:09:08;0.80;1.00
10873;DHT22;34586;53.616;10.032;2023-02-28T04:11:40;0.80;1.00
10873;DHT22;34586;53.616;10.032;2023-02-28T04:14:07;0.80;1.00
10873;DHT22;34586;53.616;10.032;2023-02-28T04:16:34;0.80;1.00
10873;DHT22;34586;53.616;10.032;2023-02-28T04:19:00;0.70;1.00
10873;DHT22;34586;53.616;10.032;2023-02-28T04:21:29;0.70;1.00
10873;DHT22;34586;53.616;10.032;2023-02-28T04:23:55;0.70;1.00
10873;DHT22;34586;53.616;10.032;2023-02-28T04:26:21;0.70;9.70
10873;DHT22;34586;53.616;10.032;2023-02-28T04:28:46;0.70;1.00
10873;DHT22;34586;53.616;10.032;2023-02-28T04:31:12;0.70;1.00
10873;DHT22;34586;53.616;10.032;2023-02-28T04:33:38;0.70;49.40
10873;DHT22;34586;53.616;10.032;2023-02-28T04:36:07;0.70;59.50
10873;DHT22;34586;53.616;10.032;2023-02-28T04:38:37;0.80;39.90
10873;DHT22;34586;53.616;10.032;2023-02-28T04:41:04;0.80;26.90
10873;DHT22;34586;53.616;10.032;2023-02-28T04:43:30;0.80;33.40
10873;DHT22;34586;53.616;10.032;2023-02-28T04:45:57;0.80;17.70
10873;DHT22;34586;53.616;10.032;2023-02-28T04:48:27;0.80;1.00
10873;DHT22;34586;53.616;10.032;2023-02-28T04:50:53;0.70;15.00
10873;DHT22;34586;53.616;10.032;2023-02-28T04:53:20;0.60;20.50
10873;DHT22;34586;53.616;10.032;2023-02-28T04:55:46;0.50;29.30
10873;DHT22;34586;53.616;10.032;2023-02-28T04:58:13;0.50;57.20
10873;DHT22;34586;53.616;10.032;2023-02-28T05:00:38;0.50;59.80
10873;DHT22;34586;53.616;10.032;2023-02-28T05:03:04;0.50;58.10
10873;DHT22;34586;53.616;10.032;2023-02-28T05:05:30;0.50;58.50
10873;DHT22;34586;53.616;10.032;2023-02-28T05:07:55;0.50;52.00
10873;DHT22;34586;53.616;10.032;2023-02-28T05:10:22;0.40;32.10
10873;DHT22;34586;53.616;10.032;2023-02-28T05:12:47;0.40;48.60
10873;DHT22;34586;53.616;10.032;2023-02-28T05:15:14;0.30;42.40
10873;DHT22;34586;53.616;10.032;2023-02-28T05:17:40;0.30;83.10
10873;DHT22;34586;53.616;10.032;2023-02-28T05:20:06;0.30;93.20
10873;DHT22;34586;53.616;10.032;2023-02-28T05:22:34;0.30;85.40
10873;DHT22;34586;53.616;10.032;2023-02-28T05:24:59;0.30;86.80
10873;DHT22;34586;53.616;10.032;2023-02-28T05:27:25;0.30;99.00
10873;DHT22;34586;53.616;10.032;2023-02-28T05:29:50;0.30;91.90
10873;DHT22;34586;53.616;10.032;2023-02-28T05:32:16;0.30;70.40
10873;DHT22;34586;53.616;10.032;2023-02-28T05:34:42;0.30;82.10
10873;DHT22;34586;53.616;10.032;2023-02-28T05:37:14;0.40;96.00
10873;DHT22;34586;53.616;10.032;2023-02-28T05:39:41;0.30;86.00
10873;DHT22;34586;53.616;10.032;2023-02-28T05:42:07;0.30;96.00
10873;DHT22;34586;53.616;10.032;2023-02-28T05:44:33;0.20;73.40
10873;DHT22;34586;53.616;10.032;2023-02-28T05:46:59;0.20;78.60
10873;DHT22;34586;53.616;10.032;2023-02-28T05:49:25;0.20;99.20
10873;DHT22;34586;53.616;10.032;2023-02-28T05:51:50;0.20;94.80
10873;DHT22;34586;53.616;10.032;2023-02-28T05:54:16;0.20;98.90
10873;DHT22;34586;53.616;10.032;2023-02-28T05:56:41;0.10;95.70
10873;DHT22;34586;53.616;10.032;2023-02-28T05:59:14;0.10;99.90
10873;DHT22;34586;53.616;10.032;2023-02-28T06:01:44;0.10;99.90
10873;DHT22;34586;53.616;10.032;2023-02-28T06:04:14;0.10;99.90
10873;DHT22;34586;53.616;10.032;2023-02-28T06:06:43;0.10;97.30
10873;DHT22;34586;53.616;10.032;2023-02-28T06:09:09;0.10;99.90
10873;DHT22;34586;53.616;10.032;2023-02-28T06:11:34;0.10;99.90
10873;DHT22;34586;53.616;10.032;2023-02-28T06:14:01;0.10;99.90
10873;DHT22;34586;53.616;10.032;2023-02-28T06:16:28;0.10;99.90
10873;DHT22;34586;53.616;10.032;2023-02-28T06:18:54;0.10;99.90
10873;DHT22;34586;53.616;10.032;2023-02-28T06:21:22;0.00;96.80
10873;DHT22;34586;53.616;10.032;2023-02-28T06:23:48;0.10;99.90
10873;DHT22;34586;53.616;10.032;2023-02-28T06:26:14;0.00;96.50
10873;DHT22;34586;53.616;10.032;2023-02-28T06:28:39;-0.10;98.90
10873;DHT22;34586;53.616;10.032;2023-02-28T06:31:09;0.00;99.90
10873;DHT22;34586;53.616;10.032;2023-02-28T06:33:37;0.00;99.90
10873;DHT22;34586;53.616;10.032;2023-02-28T06:36:03;0.10;99.90
10873;DHT22;34586;53.616;10.032;2023-02-28T06:38:29;0.10;99.90
10873;DHT22;34586;53.616;10.032;2023-02-28T06:40:56;0.10;99.90
10873;DHT22;34586;53.616;10.032;2023-02-28T06:43:23;0.10;99.90
10873;DHT22;34586;53.616;10.032;2023-02-28T06:45:49;0.10;99.90
10873;DHT22;34586;53.616;10.032;2023-02-28T06:48:15;0.20;99.40
10873;DHT22;34586;53.616;10.032;2023-02-28T06:50:40;0.20;98.30
10873;DHT22;34586;53.616;10.032;2023-02-28T06:53:06;0.20;99.90
10873;DHT22;34586;53.616;10.032;2023-02-28T06:55:31;0.20;99.90
10873;DHT22;34586;53.616;10.032;2023-02-28T06:57:57;0.30;97.50
10873;DHT22;34586;53.616;10.032;2023-02-28T07:00:23;0.30;98.50
10873;DHT22;34586;53.616;10.032;2023-02-28T07:02:50;0.30;92.70
10873;DHT22;34586;53.616;10.032;2023-02-28T07:05:15;0.30;99.30
10873;DHT22;34586;53.616;10.032;2023-02-28T07:07:41;0.40;99.90
10873;DHT22;34586;53.616;10.032;2023-02-28T07:10:12;0.30;85.10
10873;DHT22;34586;53.616;10.032;2023-02-28T07:12:39;0.40;99.10
10873;DHT22;34586;53.616;10.032;2023-02-28T07:15:06;0.40;99.90
10873;DHT22;34586;53.616;10.032;2023-02-28T07:17:31;0.50;99.90
10873;DHT22;34586;53.616;10.032;2023-02-28T07:19:57;0.60;99.90
10873;DHT22;34586;53.616;10.032;2023-02-28T07:22:22;0.60;98.40
10873;DHT22;34586;53.616;10.032;2023-02-28T07:24:48;0.60;93.40
10873;DHT22;34586;53.616;10.032;2023-02-28T07:27:14;0.70;94.10
10873;DHT22;34586;53.616;10.032;2023-02-28T07:29:49;0.70;94.30
10873;DHT22;34586;53.616;10.032;2023-02-28T07:32:15;0.80;94.60
10873;DHT22;34586;53.616;10.032;2023-02-28T07:34:41;0.80;94.50
10873;DHT22;34586;53.616;10.032;2023-02-28T07:37:06;0.90;92.90
10873;DHT22;34586;53.616;10.032;2023-02-28T07:39:32;1.00;95.90
10873;DHT22;34586;53.616;10.032;2023-02-28T07:41:57;1.10;96.80
10873;DHT22;34586;53.616;10.032;2023-02-28T07:44:25;1.20;92.70
10873;DHT22;34586;53.616;10.032;2023-02-28T07:46:50;1.40;91.50
10873;DHT22;34586;53.616;10.032;2023-02-28T07:49:16;1.40;75.10
10873;DHT22;34586;53.616;10.032;2023-02-28T07:51:42;1.50;81.30
10873;DHT22;34586;53.616;10.032;2023-02-28T07:54:07;1.60;80.70
10873;DHT22;34586;53.616;10.032;2023-02-28T07:56:33;1.60;69.20
10873;DHT22;34586;53.616;10.032;2023-02-28T07:58:58;1.70;75.50
10873;DHT22;34586;53.616;10.032;2023-02-28T08:01:24;1.80;74.70
10873;DHT22;34586;53.616;10.032;2023-02-28T08:03:50;1.90;74.50
10873;DHT22;34586;53.616;10.032;2023-02-28T08:06:21;2.00;47.70
10873;DHT22;34586;53.616;10.032;2023-02-28T08:08:48;2.10;47.50
10873;DHT22;34586;53.616;10.032;2023-02-28T08:11:14;2.20;44.70
10873;DHT22;34586;53.616;10.032;2023-02-28T08:13:40;2.20;43.20
10873;DHT22;34586;53.616;10.032;2023-02-28T08:16:07;2.30;34.00
10873;DHT22;34586;53.616;10.032;2023-02-28T08:18:34;2.40;19.50
10873;DHT22;34586;53.616;10.032;2023-02-28T08:20:59;2.50;5.70
10873;DHT22;34586;53.616;10.032;2023-02-28T08:23:30;2.60;1.00
10873;DHT22;34586;53.616;10.032;2023-02-28T08:25:56;2.70;1.00
10873;DHT22;34586;53.616;10.032;2023-02-28T08:28:22;2.80;1.00
10873;DHT22;34586;53.616;10.032;2023-02-28T08:30:48;2.90;1.00
10873;DHT22;34586;53.616;10.032;2023-02-28T08:33:14;2.90;1.00
10873;DHT22;34586;53.616;10.032;2023-02-28T08:35:39;3.00;1.00
10873;DHT22;34586;53.616;10.032;2023-02-28T08:38:05;3.10;1.00
10873;DHT22;34586;53.616;10.032;2023-02-28T08:40:31;3.20;1.00
10873;DHT22;34586;53.616;10.032;2023-02-28T08:42:56;3.30;99.90
10873;DHT22;34586;53.616;10.032;2023-02-28T08:45:22;3.40;1.00
10873;DHT22;34586;53.616;10.032;2023-02-28T08:47:47;3.50;99.90
10873;DHT22;34586;53.616;10.032;2023-02-28T08:50:13;3.60;99.90
10873;DHT22;34586;53.616;10.032;2023-02-28T08:52:42;3.70;1.00
10873;DHT22;34586;53.616;10.032;2023-02-28T08:55:08;3.80;1.00
10873;DHT22;34586;53.616;10.032;2023-02-28T08:57:34;3.80;99.90
10873;DHT22;34586;53.616;10.032;2023-02-28T09:00:00;3.90;99.90
10873;DHT22;34586;53.616;10.032;2023-02-28T09:02:30;4.00;99.90
10873;DHT22;34586;53.616;10.032;2023-02-28T09:04:55;4.10;99.90
10873;DHT22;34586;53.616;10.032;2023-02-28T09:07:21;4.10;19.70
10873;DHT22;34586;53.616;10.032;2023-02-28T09:09:46;4.20;1.00
10873;DHT22;34586;53.616;10.032;2023-02-28T09:12:24;4.30;99.90
10873;DHT22;34586;53.616;10.032;2023-02-28T09:14:50;4.40;1.00
10873;DHT22;34586;53.616;10.032;2023-02-28T09:17:16;4.50;1.00
10873;DHT22;34586;53.616;10.032;2023-02-28T09:19:42;4.60;1.00
10873;DHT22;34586;53.616;10.032;2023-02-28T09:22:09;4.60;99.90
10873;DHT22;34586;53.616;10.032;2023-02-28T09:24:36;4.70;99.90
10873;DHT22;34586;53.616;10.032;2023-02-28T09:27:03;4.70;99.90
10873;DHT22;34586;53.616;10.032;2023-02-28T09:29:28;4.70;99.90
10873;DHT22;34586;53.616;10.032;2023-02-28T09:31:54;4.70;1.00
10873;DHT22;34586;53.616;10.032;2023-02-28T09:34:21;4.80;1.00
10873;DHT22;34586;53.616;10.032;2023-02-28T09:36:46;4.90;99.90
10873;DHT22;34586;53.616;10.032;2023-02-28T09:39:13;4.90;99.90
10873;DHT22;34586;53.616;10.032;2023-02-28T09:41:43;4.90;99.90
10873;DHT22;34586;53.616;10.032;2023-02-28T09:46:54;4.90;1.00
10873;DHT22;34586;53.616;10.032;2023-02-28T09:49:23;4.90;99.90
10873;DHT22;34586;53.616;10.032;2023-02-28T09:51:59;5.00;99.90
10873;DHT22;34586;53.616;10.032;2023-02-28T09:54:29;5.10;1.00
10873;DHT22;34586;53.616;10.032;2023-02-28T09:57:01;5.10;1.00
10873;DHT22;34586;53.616;10.032;2023-02-28T09:59:42;5.10;1.00
10873;DHT22;34586;53.616;10.032;2023-02-28T10:04:56;5.20;1.00
10873;DHT22;34586;53.616;10.032;2023-02-28T10:13:06;5.20;99.90
10873;DHT22;34586;53.616;10.032;2023-02-28T10:15:34;5.20;1.00
10873;DHT22;34586;53.616;10.032;2023-02-28T10:18:04;5.30;21.50
10873;DHT22;34586;53.616;10.032;2023-02-28T10:20:33;5.40;1.00
10873;DHT22;34586;53.616;10.032;2023-02-28T10:23:14;5.40;99.90
10873;DHT22;34586;53.616;10.032;2023-02-28T10:25:46;5.50;1.00
10873;DHT22;34586;53.616;10.032;2023-02-28T10:28:15;5.50;99.90
10873;DHT22;34586;53.616;10.032;2023-02-28T10:30:45;5.40;99.90
10873;DHT22;34586;53.616;10.032;2023-02-28T10:35:49;5.50;99.90
10873;DHT22;34586;53.616;10.032;2023-02-28T10:38:20;5.50;99.90
10873;DHT22;34586;53.616;10.032;2023-02-28T10:40:46;5.50;99.90
10873;DHT22;34586;53.616;10.032;2023-02-28T10:51:07;5.60;93.30
10873;DHT22;34586;53.616;10.032;2023-02-28T10:53:36;5.70;30.50
10873;DHT22;34586;53.616;10.032;2023-02-28T10:56:19;5.70;50.00
10873;DHT22;34586;53.616;10.032;2023-02-28T11:01:24;5.70;1.00
10873;DHT22;34586;53.616;10.032;2023-02-28T11:03:52;5.80;1.00
10873;DHT22;34586;53.616;10.032;2023-02-28T11:06:23;5.90;51.70
10873;DHT22;34586;53.616;10.032;2023-02-28T11:09:02;6.00;91.90
10873;DHT22;34586;53.616;10.032;2023-02-28T11:11:31;6.00;1.00
10873;DHT22;34586;53.616;10.032;2023-02-28T11:16:47;6.10;12.00
10873;DHT22;34586;53.616;10.032;2023-02-28T11:19:23;6.10;50.00
10873;DHT22;34586;53.616;10.032;2023-02-28T11:21:57;6.10;99.90
10873;DHT22;34586;53.616;10.032;2023-02-28T11:24:28;6.10;1.00
10873;DHT22;34586;53.616;10.032;2023-02-28T11:26:56;6.20;1.00
10873;DHT22;34586;53.616;10.032;2023-02-28T11:29:32;6.20;1.00
10873;DHT22;34586;53.616;10.032;2023-02-28T11:34:38;6.30;1.00
10873;DHT22;34586;53.616;10.032;2023-02-28T11:37:08;6.30;1.00
10873;DHT22;34586;53.616;10.032;2023-02-28T11:39:36;6.40;1.00
10873;DHT22;34586;53.616;10.032;2023-02-28T11:45:07;6.20;1.00
10873;DHT22;34586;53.616;10.032;2023-02-28T11:48:22;6.30;1.00
10873;DHT22;34586;53.616;10.032;2023-02-28T12:06:46;6.60;1.00
10873;DHT22;34586;53.616;10.032;2023-02-28T12:11:56;6.80;1.00
10873;DHT22;34586;53.616;10.032;2023-02-28T12:14:49;6.90;99.90
10873;DHT22;34586;53.616;10.032;2023-02-28T12:22:36;7.20;99.90
10873;DHT22;34586;53.616;10.032;2023-02-28T12:27:38;7.50;99.90
10873;DHT22;34586;53.616;10.032;2023-02-28T12:32:41;7.80;84.90
10873;DHT22;34586;53.616;10.032;2023-02-28T12:35:14;7.90;99.90
10873;DHT22;34586;53.616;10.032;2023-02-28T12:37:46;8.10;99.90
10873;DHT22;34586;53.616;10.032;2023-02-28T12:40:27;8.50;28.90
10873;DHT22;34586;53.616;10.032;2023-02-28T12:43:02;9.70;1.00
10873;DHT22;34586;53.616;10.032;2023-02-28T12:48:15;11.20;99.90
10873;DHT22;34586;53.616;10.032;2023-02-28T12:50:45;11.40;99.90
10873;DHT22;34586;53.616;10.032;2023-02-28T12:58:50;11.50;99.90
10873;DHT22;34586;53.616;10.032;2023-02-28T13:09:56;11.40;99.90
10873;DHT22;34586;53.616;10.032;2023-02-28T13:12:22;10.80;94.40
10873;DHT22;34586;53.616;10.032;2023-02-28T13:14:48;10.50;91.80
10873;DHT22;34586;53.616;10.032;2023-02-28T13:17:20;10.40;99.90
10873;DHT22;34586;53.616;10.032;2023-02-28T13:27:49;9.90;99.90
10873;DHT22;34586;53.616;10.032;2023-02-28T13:38:39;10.10;99.90
10873;DHT22;34586;53.616;10.032;2023-02-28T13:52:11;9.70;99.90
10873;DHT22;34586;53.616;10.032;2023-02-28T13:55:02;9.70;99.90
10873;DHT22;34586;53.616;10.032;2023-02-28T14:00:32;9.50;99.90
10873;DHT22;34586;53.616;10.032;2023-02-28T14:03:25;9.50;99.90
10873;DHT22;34586;53.616;10.032;2023-02-28T14:06:30;9.50;99.90
10873;DHT22;34586;53.616;10.032;2023-02-28T14:09:06;9.50;99.90
10873;DHT22;34586;53.616;10.032;2023-02-28T14:11:37;9.50;99.90
10873;DHT22;34586;53.616;10.032;2023-02-28T14:14:04;9.40;99.90
10873;DHT22;34586;53.616;10.032;2023-02-28T14:16:47;9.20;99.90
10873;DHT22;34586;53.616;10.032;2023-02-28T14:19:28;9.10;99.90
10873;DHT22;34586;53.616;10.032;2023-02-28T14:29:52;8.70;99.90
10873;DHT22;34586;53.616;10.032;2023-02-28T14:32:33;8.70;99.90
10873;DHT22;34586;53.616;10.032;2023-02-28T14:37:44;8.50;99.90
10873;DHT22;34586;53.616;10.032;2023-02-28T14:40:19;8.40;99.90
10873;DHT22;34586;53.616;10.032;2023-02-28T14:42:54;8.30;99.90
10873;DHT22;34586;53.616;10.032;2023-02-28T14:45:22;8.30;99.90
10873;DHT22;34586;53.616;10.032;2023-02-28T14:47:50;8.30;99.90
10873;DHT22;34586;53.616;10.032;2023-02-28T14:50:21;8.30;99.90
10873;DHT22;34586;53.616;10.032;2023-02-28T14:52:51;8.30;99.90
10873;DHT22;34586;53.616;10.032;2023-02-28T14:55:18;8.30;99.90
10873;DHT22;34586;53.616;10.032;2023-02-28T14:58:00;8.30;99.90
10873;DHT22;34586;53.616;10.032;2023-02-28T15:00:34;8.30;1.00
10873;DHT22;34586;53.616;10.032;2023-02-28T15:03:11;8.20;99.90
10873;DHT22;34586;53.616;10.032;2023-02-28T15:05:42;8.20;99.90
10873;DHT22;34586;53.616;10.032;2023-02-28T15:08:16;8.10;99.90
10873;DHT22;34586;53.616;10.032;2023-02-28T15:10:51;8.00;99.90
10873;DHT22;34586;53.616;10.032;2023-02-28T15:13:19;8.00;1.00
10873;DHT22;34586;53.616;10.032;2023-02-28T15:16:10;7.90;1.00
10873;DHT22;34586;53.616;10.032;2023-02-28T15:21:13;7.70;99.90
10873;DHT22;34586;53.616;10.032;2023-02-28T15:23:42;7.60;99.90
10873;DHT22;34586;53.616;10.032;2023-02-28T15:26:14;7.60;99.90
10873;DHT22;34586;53.616;10.032;2023-02-28T15:28:40;7.50;1.00
10873;DHT22;34586;53.616;10.032;2023-02-28T15:31:26;7.40;1.00
10873;DHT22;34586;53.616;10.032;2023-02-28T15:33:57;7.30;1.00
10873;DHT22;34586;53.616;10.032;2023-02-28T15:36:26;7.20;1.00
10873;DHT22;34586;53.616;10.032;2023-02-28T15:38:53;7.10;1.00
10873;DHT22;34586;53.616;10.032;2023-02-28T15:46:53;7.00;25.90
10873;DHT22;34586;53.616;10.032;2023-02-28T15:49:22;7.00;1.00
10873;DHT22;34586;53.616;10.032;2023-02-28T15:51:53;7.00;99.90
10873;DHT22;34586;53.616;10.032;2023-02-28T15:54:28;6.90;99.90
10873;DHT22;34586;53.616;10.032;2023-02-28T15:57:03;6.80;99.90
10873;DHT22;34586;53.616;10.032;2023-02-28T15:59:30;6.80;99.90
10873;DHT22;34586;53.616;10.032;2023-02-28T16:02:18;6.70;99.90
10873;DHT22;34586;53.616;10.032;2023-02-28T16:05:21;6.70;99.90
10873;DHT22;34586;53.616;10.032;2023-02-28T16:07:47;6.70;99.90
10873;DHT22;34586;53.616;10.032;2023-02-28T16:10:14;6.60;99.90
10873;DHT22;34586;53.616;10.032;2023-02-28T16:12:40;6.50;99.90
10873;DHT22;34586;53.616;10.032;2023-02-28T16:15:14;6.50;1.00
10873;DHT22;34586;53.616;10.032;2023-02-28T16:17:42;6.40;1.00
10873;DHT22;34586;53.616;10.032;2023-02-28T16:20:18;6.40;1.00
10873;DHT22;34586;53.616;10.032;2023-02-28T16:22:44;6.30;99.90
10873;DHT22;34586;53.616;10.032;2023-02-28T16:25:16;6.20;99.90
10873;DHT22;34586;53.616;10.032;2023-02-28T16:27:42;6.20;99.90
10873;DHT22;34586;53.616;10.032;2023-02-28T16:30:20;6.20;1.00
10873;DHT22;34586;53.616;10.032;2023-02-28T16:32:47;6.10;1.00
10873;DHT22;34586;53.616;10.032;2023-02-28T16:35:13;6.00;1.00
10873;DHT22;34586;53.616;10.032;2023-02-28T16:37:40;6.00;1.00
10873;DHT22;34586;53.616;10.032;2023-02-28T16:40:17;5.90;99.90
10873;DHT22;34586;53.616;10.032;2023-02-28T16:42:44;5.80;87.40
10873;DHT22;34586;53.616;10.032;2023-02-28T16:45:24;5.80;6.50
10873;DHT22;34586;53.616;10.032;2023-02-28T16:47:50;5.70;99.90
10873;DHT22;34586;53.616;10.032;2023-02-28T16:50:19;5.70;1.00
10873;DHT22;34586;53.616;10.032;2023-02-28T16:52:45;5.60;1.00
10873;DHT22;34586;53.616;10.032;2023-02-28T16:55:11;5.50;1.00
10873;DHT22;34586;53.616;10.032;2023-02-28T16:57:38;5.40;1.00
10873;DHT22;34586;53.616;10.032;2023-02-28T17:00:07;5.30;99.90
10873;DHT22;34586;53.616;10.032;2023-02-28T17:02:33;5.20;1.00
10873;DHT22;34586;53.616;10.032;2023-02-28T17:04:59;5.10;1.00
10873;DHT22;34586;53.616;10.032;2023-02-28T17:07:25;5.10;99.90
10873;DHT22;34586;53.616;10.032;2023-02-28T17:09:50;4.90;99.90
10873;DHT22;34586;53.616;10.032;2023-02-28T17:12:16;4.80;1.00
10873;DHT22;34586;53.616;10.032;2023-02-28T17:14:41;4.70;1.00
10873;DHT22;34586;53.616;10.032;2023-02-28T17:17:09;4.60;1.00
10873;DHT22;34586;53.616;10.032;2023-02-28T17:19:35;4.50;1.00
10873;DHT22;34586;53.616;10.032;2023-02-28T17:22:01;4.40;1.00
10873;DHT22;34586;53.616;10.032;2023-02-28T17:24:28;4.30;99.90
10873;DHT22;34586;53.616;10.032;2023-02-28T17:26:53;4.20;99.90
10873;DHT22;34586;53.616;10.032;2023-02-28T17:29:21;4.10;99.90
10873;DHT22;34586;53.616;10.032;2023-02-28T17:31:47;4.10;99.90
10873;DHT22;34586;53.616;10.032;2023-02-28T17:34:13;4.00;1.00
10873;DHT22;34586;53.616;10.032;2023-02-28T17:36:48;4.00;99.90
10873;DHT22;34586;53.616;10.032;2023-02-28T17:39:14;4.00;74.50
10873;DHT22;34586;53.616;10.032;2023-02-28T17:41:41;3.90;81.50
10873;DHT22;34586;53.616;10.032;2023-02-28T17:44:07;3.80;99.90
10873;DHT22;34586;53.616;10.032;2023-02-28T17:46:33;3.70;1.00
10873;DHT22;34586;53.616;10.032;2023-02-28T17:48:58;3.70;99.90
10873;DHT22;34586;53.616;10.032;2023-02-28T17:51:25;3.60;1.00
10873;DHT22;34586;53.616;10.032;2023-02-28T17:53:52;3.50;1.00
10873;DHT22;34586;53.616;10.032;2023-02-28T17:56:23;3.50;1.00
10873;DHT22;34586;53.616;10.032;2023-02-28T17:58:49;3.50;1.00
10873;DHT22;34586;53.616;10.032;2023-02-28T18:01:15;3.40;99.90
10873;DHT22;34586;53.616;10.032;2023-02-28T18:03:40;3.50;99.90
10873;DHT22;34586;53.616;10.032;2023-02-28T18:06:07;3.40;1.00
10873;DHT22;34586;53.616;10.032;2023-02-28T18:08:38;3.40;1.00
10873;DHT22;34586;53.616;10.032;2023-02-28T18:11:04;3.30;89.60
10873;DHT22;34586;53.616;10.032;2023-02-28T18:13:29;3.30;1.00
10873;DHT22;34586;53.616;10.032;2023-02-28T18:15:55;3.30;1.00
10873;DHT22;34586;53.616;10.032;2023-02-28T18:18:21;3.20;99.90
10873;DHT22;34586;53.616;10.032;2023-02-28T18:20:46;3.20;99.90
10873;DHT22;34586;53.616;10.032;2023-02-28T18:23:15;3.20;1.00
10873;DHT22;34586;53.616;10.032;2023-02-28T18:25:41;3.10;1.00